SJV254 WIII-WAFF
Flight info
| Callsign | SJV254 |
|---|---|
| Flight time | 2h 10m |
| Altitude | 35000 |
| Route | EGUKO T9 ELAPA |
| Aircraft | A320/M-SDE3FGHIRWY/LB1 |
Departure
| Time | 2026-04-18 05:07 |
|---|---|
| Airport | Soekarno-Hatta International Airport (WIII) |
Arrival
| Time | 2026-04-18 07:17 |
|---|---|
| Airport | Mutiara - SIS Al-Jufrie Airport (WAFF) |
| Time | Latitude | Longitude | Altitude | Speed | Heading |
|---|---|---|---|---|---|
| 2026-04-18 04:35 | -6.11972 | 106.65125 | 0 ft | 0 kts | 157° |
| 2026-04-18 04:56 | -6.11968 | 106.65124 | 0 ft | 3 kts | 159° |
| 2026-04-18 04:56 | -6.11943 | 106.65121 | 30 ft | 4 kts | 173° |
| 2026-04-18 04:56 | -6.11919 | 106.65114 | 34 ft | 4 kts | 181° |
| 2026-04-18 04:57 | -6.11898 | 106.65124 | 35 ft | 4 kts | 243° |
| 2026-04-18 04:57 | -6.11892 | 106.65138 | 37 ft | 0 kts | 248° |
| 2026-04-18 05:00 | -6.11893 | 106.65135 | 37 ft | 0 kts | 248° |
| 2026-04-18 05:00 | -6.11895 | 106.65130 | 36 ft | 2 kts | 248° |
| 2026-04-18 05:01 | -6.11901 | 106.65114 | 38 ft | 3 kts | 248° |
| 2026-04-18 05:01 | -6.11911 | 106.65089 | 38 ft | 5 kts | 248° |
| 2026-04-18 05:01 | -6.11919 | 106.65053 | 37 ft | 6 kts | 263° |
| 2026-04-18 05:01 | -6.11903 | 106.65012 | 37 ft | 7 kts | 313° |
| 2026-04-18 05:02 | -6.11867 | 106.64971 | 38 ft | 8 kts | 294° |
| 2026-04-18 05:02 | -6.11876 | 106.64911 | 36 ft | 10 kts | 246° |
| 2026-04-18 05:02 | -6.11905 | 106.64843 | 36 ft | 11 kts | 248° |
| 2026-04-18 05:02 | -6.11936 | 106.64764 | 38 ft | 13 kts | 248° |
| 2026-04-18 05:03 | -6.11971 | 106.64676 | 38 ft | 14 kts | 248° |
| 2026-04-18 05:03 | -6.12010 | 106.64579 | 37 ft | 16 kts | 248° |
| 2026-04-18 05:03 | -6.12053 | 106.64471 | 38 ft | 18 kts | 249° |
| 2026-04-18 05:03 | -6.12100 | 106.64352 | 38 ft | 19 kts | 248° |
| 2026-04-18 05:04 | -6.12151 | 106.64223 | 36 ft | 21 kts | 248° |
| 2026-04-18 05:04 | -6.12206 | 106.64086 | 37 ft | 20 kts | 247° |
| 2026-04-18 05:04 | -6.12240 | 106.64004 | 38 ft | 10 kts | 248° |
| 2026-04-18 05:04 | -6.12254 | 106.63934 | 38 ft | 11 kts | 282° |
| 2026-04-18 05:05 | -6.12207 | 106.63886 | 39 ft | 8 kts | 342° |
| 2026-04-18 05:05 | -6.12168 | 106.63887 | 39 ft | 6 kts | 12° |
| 2026-04-18 05:05 | -6.12123 | 106.63895 | 39 ft | 3 kts | 4° |
| 2026-04-18 05:05 | -6.12092 | 106.63897 | 38 ft | 6 kts | 14° |
| 2026-04-18 05:06 | -6.12074 | 106.63922 | 38 ft | 4 kts | 71° |
| 2026-04-18 05:06 | -6.12064 | 106.63953 | 38 ft | 6 kts | 71° |
| 2026-04-18 05:06 | -6.11981 | 106.64160 | 38 ft | 64 kts | 69° |
| 2026-04-18 05:06 | -6.11742 | 106.64760 | 40 ft | 118 kts | 68° |
| 2026-04-18 05:07 | -6.11383 | 106.65664 | 37 ft | 159 kts | 68° |
| 2026-04-18 05:07 | -6.10941 | 106.66789 | 251 ft | 179 kts | 68° |
| 2026-04-18 05:07 | -6.10492 | 106.67959 | 889 ft | 179 kts | 68° |
| 2026-04-18 05:07 | -6.09937 | 106.69078 | 1550 ft | 181 kts | 51° |
| 2026-04-18 05:08 | -6.09082 | 106.69985 | 2148 ft | 183 kts | 44° |
| 2026-04-18 05:08 | -6.08097 | 106.70904 | 2373 ft | 204 kts | 43° |
| 2026-04-18 05:08 | -6.07007 | 106.71936 | 2640 ft | 223 kts | 44° |
| 2026-04-18 05:08 | -6.05897 | 106.73036 | 3269 ft | 227 kts | 45° |
| 2026-04-18 05:09 | -6.04758 | 106.74187 | 3848 ft | 234 kts | 46° |
| 2026-04-18 05:09 | -6.03599 | 106.75353 | 4521 ft | 237 kts | 46° |
| 2026-04-18 05:09 | -6.02437 | 106.76517 | 5194 ft | 240 kts | 46° |
| 2026-04-18 05:09 | -6.01246 | 106.77704 | 5887 ft | 243 kts | 46° |
| 2026-04-18 05:10 | -6.00038 | 106.78900 | 6585 ft | 245 kts | 45° |
| 2026-04-18 05:10 | -5.98817 | 106.80105 | 7244 ft | 248 kts | 46° |
| 2026-04-18 05:10 | -5.97582 | 106.81340 | 7867 ft | 253 kts | 46° |
| 2026-04-18 05:10 | -5.96339 | 106.82611 | 8500 ft | 256 kts | 49° |
| 2026-04-18 05:11 | -5.95367 | 106.84107 | 9097 ft | 258 kts | 64° |
| 2026-04-18 05:11 | -5.94536 | 106.85720 | 9708 ft | 262 kts | 63° |
| 2026-04-18 05:11 | -5.93649 | 106.87341 | 10208 ft | 272 kts | 61° |
| 2026-04-18 05:11 | -5.92683 | 106.89077 | 10324 ft | 296 kts | 62° |
| 2026-04-18 05:12 | -5.91655 | 106.90947 | 10492 ft | 316 kts | 62° |
| 2026-04-18 05:12 | -5.90568 | 106.92940 | 10640 ft | 335 kts | 62° |
| 2026-04-18 05:12 | -5.89420 | 106.95052 | 10784 ft | 353 kts | 62° |
| 2026-04-18 05:12 | -5.88227 | 106.97240 | 11140 ft | 361 kts | 62° |
| 2026-04-18 05:13 | -5.87013 | 106.99463 | 11643 ft | 365 kts | 62° |
| 2026-04-18 05:13 | -5.85785 | 107.01700 | 12165 ft | 368 kts | 62° |
| 2026-04-18 05:13 | -5.84558 | 107.03931 | 12665 ft | 370 kts | 62° |
| 2026-04-18 05:13 | -5.83304 | 107.06207 | 13174 ft | 373 kts | 62° |
| 2026-04-18 05:14 | -5.82042 | 107.08496 | 13675 ft | 376 kts | 62° |
| 2026-04-18 05:14 | -5.80774 | 107.10798 | 14170 ft | 378 kts | 62° |
| 2026-04-18 05:14 | -5.79498 | 107.13114 | 14678 ft | 380 kts | 62° |
| 2026-04-18 05:14 | -5.78212 | 107.15449 | 15156 ft | 382 kts | 62° |
| 2026-04-18 05:15 | -5.76922 | 107.17794 | 15617 ft | 385 kts | 62° |
| 2026-04-18 05:15 | -5.75625 | 107.20155 | 16066 ft | 388 kts | 62° |
| 2026-04-18 05:15 | -5.74318 | 107.22535 | 16516 ft | 390 kts | 62° |
| 2026-04-18 05:15 | -5.73001 | 107.24928 | 16951 ft | 393 kts | 62° |
| 2026-04-18 05:16 | -5.71673 | 107.27338 | 17385 ft | 395 kts | 62° |
| 2026-04-18 05:16 | -5.70342 | 107.29758 | 17808 ft | 398 kts | 62° |
| 2026-04-18 05:16 | -5.69000 | 107.32200 | 18227 ft | 400 kts | 62° |
| 2026-04-18 05:16 | -5.67649 | 107.34658 | 18638 ft | 403 kts | 62° |
| 2026-04-18 05:17 | -5.66289 | 107.37132 | 19042 ft | 405 kts | 62° |
| 2026-04-18 05:17 | -5.64922 | 107.39614 | 19451 ft | 407 kts | 62° |
| 2026-04-18 05:17 | -5.63545 | 107.42111 | 19857 ft | 410 kts | 62° |
| 2026-04-18 05:17 | -5.62163 | 107.44620 | 20264 ft | 412 kts | 62° |
| 2026-04-18 05:18 | -5.60778 | 107.47138 | 20650 ft | 414 kts | 62° |
| 2026-04-18 05:18 | -5.59380 | 107.49673 | 21027 ft | 416 kts | 62° |
| 2026-04-18 05:18 | -5.57974 | 107.52222 | 21383 ft | 418 kts | 62° |
| 2026-04-18 05:18 | -5.56582 | 107.54745 | 21734 ft | 420 kts | 62° |
| 2026-04-18 05:19 | -5.55164 | 107.57319 | 22076 ft | 422 kts | 62° |
| 2026-04-18 05:19 | -5.53742 | 107.59903 | 22414 ft | 424 kts | 62° |
| 2026-04-18 05:19 | -5.52313 | 107.62497 | 22732 ft | 426 kts | 63° |
| 2026-04-18 05:19 | -5.50877 | 107.65106 | 23054 ft | 427 kts | 63° |
| 2026-04-18 05:20 | -5.49436 | 107.67724 | 23362 ft | 429 kts | 62° |
| 2026-04-18 05:20 | -5.47988 | 107.70351 | 23666 ft | 431 kts | 62° |
| 2026-04-18 05:20 | -5.46533 | 107.72990 | 23970 ft | 433 kts | 62° |
| 2026-04-18 05:20 | -5.45070 | 107.75637 | 24263 ft | 434 kts | 62° |
| 2026-04-18 05:21 | -5.43598 | 107.78289 | 24551 ft | 436 kts | 61° |
| 2026-04-18 05:21 | -5.41915 | 107.80832 | 24820 ft | 439 kts | 56° |
| 2026-04-18 05:21 | -5.40153 | 107.83341 | 25099 ft | 440 kts | 56° |
| 2026-04-18 05:21 | -5.38386 | 107.85857 | 25363 ft | 442 kts | 56° |
| 2026-04-18 05:22 | -5.36614 | 107.88384 | 25631 ft | 443 kts | 56° |
| 2026-04-18 05:22 | -5.34857 | 107.90889 | 25887 ft | 445 kts | 56° |
| 2026-04-18 05:22 | -5.33070 | 107.93436 | 26155 ft | 446 kts | 56° |
| 2026-04-18 05:22 | -5.31284 | 107.95984 | 26408 ft | 448 kts | 56° |
| 2026-04-18 05:23 | -5.29490 | 107.98541 | 26663 ft | 449 kts | 56° |
| 2026-04-18 05:23 | -5.27688 | 108.01108 | 26898 ft | 451 kts | 56° |
| 2026-04-18 05:23 | -5.25881 | 108.03687 | 27131 ft | 452 kts | 56° |
| 2026-04-18 05:23 | -5.24089 | 108.06246 | 27364 ft | 453 kts | 56° |
| 2026-04-18 05:24 | -5.22271 | 108.08840 | 27653 ft | 453 kts | 56° |
| 2026-04-18 05:24 | -5.20459 | 108.11423 | 27989 ft | 452 kts | 57° |
| 2026-04-18 05:24 | -5.18647 | 108.14003 | 28295 ft | 452 kts | 57° |
| 2026-04-18 05:24 | -5.16836 | 108.16580 | 28608 ft | 452 kts | 57° |
| 2026-04-18 05:25 | -5.15027 | 108.19156 | 28932 ft | 451 kts | 57° |
| 2026-04-18 05:25 | -5.13224 | 108.21726 | 29257 ft | 450 kts | 57° |
| 2026-04-18 05:25 | -5.11426 | 108.24293 | 29592 ft | 449 kts | 57° |
| 2026-04-18 05:25 | -5.09628 | 108.26857 | 29930 ft | 448 kts | 57° |
| 2026-04-18 05:26 | -5.07834 | 108.29413 | 30268 ft | 447 kts | 57° |
| 2026-04-18 05:26 | -5.06047 | 108.31960 | 30590 ft | 447 kts | 57° |
| 2026-04-18 05:26 | -5.04259 | 108.34507 | 30900 ft | 447 kts | 57° |
| 2026-04-18 05:26 | -5.02467 | 108.37055 | 31196 ft | 447 kts | 57° |
| 2026-04-18 05:27 | -5.00679 | 108.39594 | 31494 ft | 447 kts | 57° |
| 2026-04-18 05:27 | -4.99488 | 108.41285 | 31692 ft | 447 kts | 57° |
| 2026-04-18 05:27 | -4.97698 | 108.43824 | 31990 ft | 447 kts | 57° |
| 2026-04-18 05:27 | -4.95304 | 108.47227 | 32383 ft | 446 kts | 57° |
| 2026-04-18 05:28 | -4.94121 | 108.48917 | 32576 ft | 446 kts | 57° |
| 2026-04-18 05:28 | -4.92340 | 108.51465 | 32854 ft | 446 kts | 57° |
| 2026-04-18 05:28 | -4.90555 | 108.54015 | 33109 ft | 446 kts | 57° |
| 2026-04-18 05:28 | -4.88768 | 108.56560 | 33360 ft | 446 kts | 57° |
| 2026-04-18 05:29 | -4.86974 | 108.59111 | 33608 ft | 447 kts | 57° |
| 2026-04-18 05:29 | -4.85182 | 108.61654 | 33849 ft | 447 kts | 57° |
| 2026-04-18 05:29 | -4.83394 | 108.64196 | 34107 ft | 446 kts | 57° |
| 2026-04-18 05:29 | -4.81609 | 108.66736 | 34349 ft | 446 kts | 57° |
| 2026-04-18 05:30 | -4.79825 | 108.69275 | 34597 ft | 445 kts | 57° |
| 2026-04-18 05:30 | -4.78042 | 108.71813 | 34806 ft | 445 kts | 57° |
| 2026-04-18 05:30 | -4.74455 | 108.76919 | 34894 ft | 453 kts | 57° |
| 2026-04-18 05:31 | -4.70920 | 108.82207 | 34892 ft | 458 kts | 65° |
| 2026-04-18 05:31 | -4.68173 | 108.87964 | 34893 ft | 458 kts | 67° |
| 2026-04-18 05:32 | -4.65425 | 108.93746 | 34893 ft | 459 kts | 67° |
| 2026-04-18 05:32 | -4.62675 | 108.99512 | 34893 ft | 459 kts | 67° |
| 2026-04-18 05:33 | -4.59917 | 109.05290 | 34895 ft | 459 kts | 67° |
| 2026-04-18 05:33 | -4.57168 | 109.11060 | 34895 ft | 459 kts | 67° |
| 2026-04-18 05:34 | -4.54441 | 109.16801 | 34897 ft | 459 kts | 67° |
| 2026-04-18 05:34 | -4.51691 | 109.22583 | 34889 ft | 459 kts | 66° |
| 2026-04-18 05:35 | -4.48941 | 109.28355 | 34884 ft | 459 kts | 66° |
| 2026-04-18 05:35 | -4.46184 | 109.34142 | 34885 ft | 459 kts | 66° |
| 2026-04-18 05:36 | -4.43432 | 109.39920 | 34883 ft | 460 kts | 66° |
| 2026-04-18 05:36 | -4.40672 | 109.45701 | 34880 ft | 460 kts | 66° |
| 2026-04-18 05:37 | -4.37917 | 109.51485 | 34882 ft | 460 kts | 66° |
| 2026-04-18 05:37 | -4.35161 | 109.57274 | 34881 ft | 460 kts | 66° |
| 2026-04-18 05:38 | -4.32406 | 109.63060 | 34884 ft | 460 kts | 66° |
| 2026-04-18 05:38 | -4.29641 | 109.68837 | 34881 ft | 460 kts | 66° |
| 2026-04-18 05:39 | -4.26876 | 109.74609 | 34880 ft | 460 kts | 66° |
| 2026-04-18 05:39 | -4.24119 | 109.80391 | 34881 ft | 460 kts | 66° |
| 2026-04-18 05:40 | -4.21386 | 109.86137 | 34880 ft | 459 kts | 66° |
| 2026-04-18 05:40 | -4.18631 | 109.91916 | 34879 ft | 460 kts | 66° |
| 2026-04-18 05:41 | -4.15873 | 109.97692 | 34879 ft | 460 kts | 66° |
| 2026-04-18 05:41 | -4.13105 | 110.03471 | 34880 ft | 460 kts | 66° |
| 2026-04-18 05:42 | -4.10344 | 110.09251 | 34882 ft | 460 kts | 66° |
| 2026-04-18 05:42 | -4.07584 | 110.15033 | 34879 ft | 459 kts | 66° |
| 2026-04-18 05:43 | -4.04823 | 110.20797 | 34878 ft | 459 kts | 66° |
| 2026-04-18 05:43 | -4.02063 | 110.26573 | 34876 ft | 459 kts | 66° |
| 2026-04-18 05:44 | -3.99301 | 110.32343 | 34876 ft | 459 kts | 66° |
| 2026-04-18 05:44 | -3.96558 | 110.38080 | 34866 ft | 460 kts | 66° |
| 2026-04-18 05:45 | -3.93774 | 110.43897 | 34864 ft | 460 kts | 66° |
| 2026-04-18 05:45 | -3.91027 | 110.49641 | 34865 ft | 461 kts | 66° |
| 2026-04-18 05:46 | -3.88256 | 110.55435 | 34871 ft | 461 kts | 66° |
| 2026-04-18 05:46 | -3.85482 | 110.61223 | 34873 ft | 461 kts | 66° |
| 2026-04-18 05:47 | -3.82711 | 110.67007 | 34869 ft | 461 kts | 66° |
| 2026-04-18 05:47 | -3.79938 | 110.72800 | 34875 ft | 461 kts | 66° |
| 2026-04-18 05:48 | -3.77163 | 110.78595 | 34878 ft | 462 kts | 66° |
| 2026-04-18 05:48 | -3.74385 | 110.84389 | 34875 ft | 461 kts | 66° |
| 2026-04-18 05:49 | -3.71608 | 110.90181 | 34872 ft | 461 kts | 66° |
| 2026-04-18 05:49 | -3.68826 | 110.95980 | 34857 ft | 462 kts | 66° |
| 2026-04-18 05:50 | -3.66048 | 111.01791 | 34854 ft | 463 kts | 66° |
| 2026-04-18 05:50 | -3.63271 | 111.07579 | 34855 ft | 464 kts | 66° |
| 2026-04-18 05:51 | -3.60470 | 111.13402 | 34860 ft | 465 kts | 66° |
| 2026-04-18 05:51 | -3.57673 | 111.19249 | 34867 ft | 465 kts | 66° |
| 2026-04-18 05:52 | -3.54871 | 111.25089 | 34873 ft | 465 kts | 66° |
| 2026-04-18 05:52 | -3.52063 | 111.30933 | 34874 ft | 465 kts | 66° |
| 2026-04-18 05:53 | -3.49256 | 111.36778 | 34877 ft | 465 kts | 66° |
| 2026-04-18 05:53 | -3.46476 | 111.42581 | 34877 ft | 465 kts | 66° |
| 2026-04-18 05:54 | -3.43675 | 111.48420 | 34849 ft | 465 kts | 65° |
| 2026-04-18 05:54 | -3.40885 | 111.54227 | 34838 ft | 462 kts | 65° |
| 2026-04-18 05:55 | -3.38098 | 111.60014 | 34838 ft | 461 kts | 65° |
| 2026-04-18 05:55 | -3.35322 | 111.65799 | 34838 ft | 461 kts | 65° |
| 2026-04-18 05:56 | -3.32546 | 111.71579 | 34839 ft | 461 kts | 65° |
| 2026-04-18 05:56 | -3.29761 | 111.77367 | 34842 ft | 461 kts | 65° |
| 2026-04-18 05:57 | -3.25585 | 111.86050 | 34848 ft | 462 kts | 65° |
| 2026-04-18 05:58 | -3.22803 | 111.91850 | 34850 ft | 462 kts | 65° |
| 2026-04-18 05:58 | -3.20041 | 111.97597 | 34847 ft | 461 kts | 65° |
| 2026-04-18 05:59 | -3.17252 | 112.03388 | 34845 ft | 461 kts | 65° |
| 2026-04-18 05:59 | -3.14472 | 112.09163 | 34854 ft | 461 kts | 65° |
| 2026-04-18 06:00 | -3.11695 | 112.14936 | 34858 ft | 460 kts | 65° |
| 2026-04-18 06:00 | -3.08918 | 112.20698 | 34856 ft | 459 kts | 65° |
| 2026-04-18 06:01 | -3.06155 | 112.26454 | 34853 ft | 459 kts | 65° |
| 2026-04-18 06:01 | -3.03413 | 112.32223 | 34853 ft | 459 kts | 66° |
| 2026-04-18 06:02 | -3.00989 | 112.38123 | 34853 ft | 459 kts | 70° |
| 2026-04-18 06:02 | -2.98746 | 112.44099 | 34853 ft | 459 kts | 70° |
| 2026-04-18 06:03 | -2.96465 | 112.50049 | 34853 ft | 459 kts | 69° |
| 2026-04-18 06:03 | -2.94120 | 112.55989 | 34852 ft | 459 kts | 69° |
| 2026-04-18 06:04 | -2.91776 | 112.61875 | 34852 ft | 458 kts | 69° |
| 2026-04-18 06:04 | -2.89418 | 112.67805 | 34836 ft | 460 kts | 68° |
| 2026-04-18 06:05 | -2.87064 | 112.73756 | 34837 ft | 460 kts | 69° |
| 2026-04-18 06:05 | -2.84714 | 112.79719 | 34838 ft | 460 kts | 69° |
| 2026-04-18 06:06 | -2.82362 | 112.85672 | 34838 ft | 460 kts | 68° |
| 2026-04-18 06:06 | -2.80005 | 112.91629 | 34838 ft | 460 kts | 68° |
| 2026-04-18 06:07 | -2.77650 | 112.97584 | 34840 ft | 460 kts | 68° |
| 2026-04-18 06:07 | -2.75288 | 113.03544 | 34841 ft | 460 kts | 68° |
| 2026-04-18 06:08 | -2.72925 | 113.09501 | 34840 ft | 460 kts | 68° |
| 2026-04-18 06:08 | -2.70585 | 113.15418 | 34842 ft | 461 kts | 69° |
| 2026-04-18 06:09 | -2.68230 | 113.21378 | 34843 ft | 461 kts | 68° |
| 2026-04-18 06:09 | -2.65866 | 113.27336 | 34850 ft | 460 kts | 69° |
| 2026-04-18 06:10 | -2.63512 | 113.33285 | 34852 ft | 460 kts | 69° |
| 2026-04-18 06:10 | -2.61152 | 113.39221 | 34850 ft | 459 kts | 66° |
| 2026-04-18 06:11 | -2.57913 | 113.44708 | 34846 ft | 459 kts | 57° |
| 2026-04-18 06:11 | -2.54398 | 113.50032 | 34844 ft | 459 kts | 57° |
| 2026-04-18 06:12 | -2.50893 | 113.55377 | 34844 ft | 459 kts | 57° |
| 2026-04-18 06:12 | -2.47392 | 113.60716 | 34846 ft | 460 kts | 57° |
| 2026-04-18 06:13 | -2.43904 | 113.66026 | 34848 ft | 460 kts | 57° |
| 2026-04-18 06:13 | -2.40423 | 113.71325 | 34849 ft | 460 kts | 57° |
| 2026-04-18 06:14 | -2.36910 | 113.76675 | 34851 ft | 460 kts | 57° |
| 2026-04-18 06:14 | -2.33395 | 113.82024 | 34853 ft | 460 kts | 57° |
| 2026-04-18 06:15 | -2.29870 | 113.87367 | 34854 ft | 460 kts | 57° |
| 2026-04-18 06:15 | -2.26353 | 113.92713 | 34854 ft | 460 kts | 57° |
| 2026-04-18 06:16 | -2.23363 | 113.98345 | 34852 ft | 459 kts | 67° |
| 2026-04-18 06:16 | -2.20810 | 114.04201 | 34851 ft | 459 kts | 66° |
| 2026-04-18 06:17 | -2.18251 | 114.10001 | 34851 ft | 459 kts | 66° |
| 2026-04-18 06:17 | -2.15676 | 114.15850 | 34851 ft | 459 kts | 66° |
| 2026-04-18 06:18 | -2.13111 | 114.21703 | 34850 ft | 459 kts | 66° |
| 2026-04-18 06:18 | -2.10541 | 114.27550 | 34850 ft | 459 kts | 66° |
| 2026-04-18 06:19 | -2.07971 | 114.33397 | 34849 ft | 459 kts | 66° |
| 2026-04-18 06:19 | -2.05404 | 114.39235 | 34855 ft | 458 kts | 67° |
| 2026-04-18 06:20 | -2.03273 | 114.44086 | 34854 ft | 458 kts | 67° |
| 2026-04-18 06:20 | -2.00716 | 114.49913 | 34852 ft | 458 kts | 67° |
| 2026-04-18 06:21 | -1.98156 | 114.55742 | 34849 ft | 457 kts | 67° |
| 2026-04-18 06:21 | -1.95600 | 114.61560 | 34847 ft | 457 kts | 67° |
| 2026-04-18 06:22 | -1.92631 | 114.68327 | 34845 ft | 457 kts | 67° |
| 2026-04-18 06:22 | -1.90489 | 114.73204 | 34844 ft | 457 kts | 67° |
| 2026-04-18 06:23 | -1.87925 | 114.79021 | 34843 ft | 457 kts | 67° |
| 2026-04-18 06:23 | -1.85381 | 114.84790 | 34843 ft | 457 kts | 67° |
| 2026-04-18 06:24 | -1.82821 | 114.90612 | 34843 ft | 457 kts | 67° |
| 2026-04-18 06:24 | -1.80268 | 114.96433 | 34836 ft | 458 kts | 66° |
| 2026-04-18 06:25 | -1.77705 | 115.02264 | 34833 ft | 458 kts | 66° |
| 2026-04-18 06:25 | -1.75135 | 115.08103 | 34833 ft | 458 kts | 66° |
| 2026-04-18 06:26 | -1.72572 | 115.13932 | 34835 ft | 459 kts | 66° |
| 2026-04-18 06:26 | -1.70003 | 115.19774 | 34839 ft | 459 kts | 66° |
| 2026-04-18 06:27 | -1.67460 | 115.25624 | 34839 ft | 459 kts | 67° |
| 2026-04-18 06:27 | -1.65039 | 115.31534 | 34840 ft | 459 kts | 68° |
| 2026-04-18 06:28 | -1.62672 | 115.37421 | 34843 ft | 460 kts | 68° |
| 2026-04-18 06:28 | -1.60252 | 115.43349 | 34844 ft | 460 kts | 68° |
| 2026-04-18 06:29 | -1.57804 | 115.49270 | 34846 ft | 460 kts | 68° |
| 2026-04-18 06:29 | -1.55370 | 115.55186 | 34832 ft | 461 kts | 68° |
| 2026-04-18 06:30 | -1.52929 | 115.61140 | 34836 ft | 464 kts | 68° |
| 2026-04-18 06:30 | -1.50469 | 115.67135 | 34843 ft | 466 kts | 68° |
| 2026-04-18 06:31 | -1.48014 | 115.73093 | 34851 ft | 467 kts | 67° |
| 2026-04-18 06:31 | -1.45542 | 115.79100 | 34858 ft | 467 kts | 68° |
| 2026-04-18 06:32 | -1.43075 | 115.85110 | 34863 ft | 467 kts | 68° |
| 2026-04-18 06:32 | -1.40605 | 115.91125 | 34868 ft | 468 kts | 67° |
| 2026-04-18 06:33 | -1.38130 | 115.97144 | 34866 ft | 468 kts | 68° |
| 2026-04-18 06:33 | -1.35657 | 116.03181 | 34864 ft | 469 kts | 68° |
| 2026-04-18 06:34 | -1.33182 | 116.09212 | 34872 ft | 469 kts | 68° |
| 2026-04-18 06:34 | -1.30699 | 116.15242 | 34885 ft | 468 kts | 68° |
| 2026-04-18 06:35 | -1.28232 | 116.21253 | 34892 ft | 467 kts | 68° |
| 2026-04-18 06:35 | -1.25769 | 116.27243 | 34890 ft | 466 kts | 68° |
| 2026-04-18 06:36 | -1.23319 | 116.33190 | 34885 ft | 465 kts | 68° |
| 2026-04-18 06:36 | -1.20857 | 116.39172 | 34868 ft | 466 kts | 68° |
| 2026-04-18 06:37 | -1.18390 | 116.45174 | 34859 ft | 468 kts | 68° |
| 2026-04-18 06:37 | -1.15947 | 116.51120 | 34855 ft | 469 kts | 68° |
| 2026-04-18 06:38 | -1.13468 | 116.57157 | 34855 ft | 470 kts | 68° |
| 2026-04-18 06:38 | -1.10986 | 116.63199 | 34862 ft | 470 kts | 67° |
| 2026-04-18 06:39 | -1.08497 | 116.69237 | 34872 ft | 470 kts | 67° |
| 2026-04-18 06:39 | -1.06013 | 116.75278 | 34878 ft | 470 kts | 67° |
| 2026-04-18 06:40 | -1.03533 | 116.81317 | 34880 ft | 470 kts | 67° |
| 2026-04-18 06:40 | -1.01069 | 116.87312 | 34875 ft | 469 kts | 67° |
| 2026-04-18 06:41 | -0.98580 | 116.93347 | 34877 ft | 470 kts | 67° |
| 2026-04-18 06:41 | -0.96091 | 116.99383 | 34880 ft | 470 kts | 67° |
| 2026-04-18 06:42 | -0.93606 | 117.05427 | 34878 ft | 470 kts | 67° |
| 2026-04-18 06:42 | -0.91133 | 117.11459 | 34877 ft | 469 kts | 67° |
| 2026-04-18 06:43 | -0.88658 | 117.17494 | 34877 ft | 469 kts | 67° |
| 2026-04-18 06:43 | -0.86183 | 117.23519 | 34874 ft | 469 kts | 67° |
| 2026-04-18 06:44 | -0.83706 | 117.29548 | 34874 ft | 469 kts | 67° |
| 2026-04-18 06:44 | -0.81226 | 117.35583 | 34856 ft | 470 kts | 67° |
| 2026-04-18 06:45 | -0.78750 | 117.41607 | 34850 ft | 472 kts | 67° |
| 2026-04-18 06:45 | -0.76257 | 117.47684 | 34852 ft | 473 kts | 67° |
| 2026-04-18 06:46 | -0.73762 | 117.53764 | 34856 ft | 474 kts | 67° |
| 2026-04-18 06:46 | -0.71249 | 117.59854 | 34862 ft | 474 kts | 67° |
| 2026-04-18 06:47 | -0.68735 | 117.65948 | 34870 ft | 474 kts | 67° |
| 2026-04-18 06:47 | -0.66234 | 117.72045 | 34874 ft | 474 kts | 67° |
| 2026-04-18 06:48 | -0.63732 | 117.78151 | 34874 ft | 475 kts | 67° |
| 2026-04-18 06:48 | -0.61223 | 117.84252 | 34877 ft | 474 kts | 67° |
| 2026-04-18 06:49 | -0.58713 | 117.90353 | 34876 ft | 474 kts | 67° |
| 2026-04-18 06:49 | -0.56205 | 117.96452 | 34876 ft | 474 kts | 67° |
| 2026-04-18 06:50 | -0.53718 | 118.02517 | 34878 ft | 474 kts | 67° |
| 2026-04-18 06:50 | -0.51208 | 118.08623 | 34876 ft | 474 kts | 67° |
| 2026-04-18 06:51 | -0.48699 | 118.14718 | 34876 ft | 474 kts | 67° |
| 2026-04-18 06:51 | -0.46192 | 118.20816 | 34878 ft | 474 kts | 67° |
| 2026-04-18 06:52 | -0.43705 | 118.26883 | 34876 ft | 474 kts | 67° |
| 2026-04-18 06:52 | -0.41194 | 118.32987 | 34880 ft | 475 kts | 67° |
| 2026-04-18 06:53 | -0.38675 | 118.39092 | 34877 ft | 475 kts | 67° |
| 2026-04-18 06:53 | -0.36342 | 118.45246 | 34878 ft | 475 kts | 75° |
| 2026-04-18 06:54 | -0.34928 | 118.51708 | 34876 ft | 475 kts | 77° |
| 2026-04-18 06:54 | -0.33521 | 118.58165 | 34871 ft | 476 kts | 77° |
| 2026-04-18 06:55 | -0.32115 | 118.64584 | 34870 ft | 476 kts | 77° |
| 2026-04-18 06:55 | -0.30691 | 118.71059 | 34872 ft | 477 kts | 77° |
| 2026-04-18 06:56 | -0.29298 | 118.77420 | 34863 ft | 455 kts | 77° |
| 2026-04-18 06:56 | -0.28636 | 118.80466 | 34864 ft | 442 kts | 77° |
| 2026-04-18 06:56 | -0.27994 | 118.83426 | 34865 ft | 433 kts | 77° |
| 2026-04-18 06:57 | -0.26715 | 118.89276 | 34865 ft | 429 kts | 77° |
| 2026-04-18 06:57 | -0.24804 | 118.98013 | 34865 ft | 429 kts | 77° |
| 2026-04-18 06:58 | -0.23531 | 119.03837 | 34865 ft | 429 kts | 77° |
| 2026-04-18 06:58 | -0.22260 | 119.09663 | 34869 ft | 429 kts | 77° |
| 2026-04-18 06:59 | -0.20983 | 119.15493 | 34872 ft | 430 kts | 76° |
| 2026-04-18 06:59 | -0.19702 | 119.21321 | 34877 ft | 430 kts | 76° |
| 2026-04-18 07:00 | -0.18437 | 119.27122 | 34881 ft | 430 kts | 76° |
| 2026-04-18 07:00 | -0.17150 | 119.32995 | 34359 ft | 447 kts | 76° |
| 2026-04-18 07:01 | -0.16469 | 119.36106 | 33141 ft | 466 kts | 77° |
| 2026-04-18 07:01 | -0.15765 | 119.39314 | 31890 ft | 479 kts | 76° |
| 2026-04-18 07:01 | -0.15043 | 119.42610 | 30596 ft | 491 kts | 77° |
| 2026-04-18 07:01 | -0.14311 | 119.45981 | 29305 ft | 502 kts | 77° |
| 2026-04-18 07:02 | -0.13571 | 119.49387 | 28628 ft | 498 kts | 77° |
| 2026-04-18 07:02 | -0.13004 | 119.52760 | 28078 ft | 491 kts | 85° |
| 2026-04-18 07:02 | -0.13050 | 119.56155 | 27445 ft | 486 kts | 96° |
| 2026-04-18 07:02 | -0.13678 | 119.59276 | 26814 ft | 483 kts | 107° |
| 2026-04-18 07:03 | -0.14830 | 119.62402 | 26124 ft | 478 kts | 111° |
| 2026-04-18 07:03 | -0.16010 | 119.65450 | 25454 ft | 474 kts | 111° |
| 2026-04-18 07:03 | -0.17187 | 119.68519 | 24799 ft | 470 kts | 111° |
| 2026-04-18 07:03 | -0.18341 | 119.71554 | 24136 ft | 466 kts | 111° |
| 2026-04-18 07:04 | -0.19481 | 119.74567 | 23487 ft | 461 kts | 111° |
| 2026-04-18 07:04 | -0.20608 | 119.77550 | 22833 ft | 457 kts | 111° |
| 2026-04-18 07:04 | -0.21731 | 119.80515 | 22168 ft | 453 kts | 111° |
| 2026-04-18 07:04 | -0.22843 | 119.83441 | 21522 ft | 450 kts | 111° |
| 2026-04-18 07:05 | -0.23953 | 119.86350 | 20869 ft | 447 kts | 111° |
| 2026-04-18 07:05 | -0.25055 | 119.89240 | 20189 ft | 445 kts | 111° |
| 2026-04-18 07:05 | -0.26154 | 119.92130 | 19545 ft | 443 kts | 111° |
| 2026-04-18 07:05 | -0.27251 | 119.95005 | 18992 ft | 448 kts | 111° |
| 2026-04-18 07:06 | -0.28752 | 119.97821 | 18384 ft | 467 kts | 127° |
| 2026-04-18 07:06 | -0.31014 | 120.00136 | 17745 ft | 466 kts | 144° |
| 2026-04-18 07:06 | -0.33801 | 120.01725 | 17048 ft | 460 kts | 158° |
| 2026-04-18 07:06 | -0.36719 | 120.03003 | 16328 ft | 455 kts | 158° |
| 2026-04-18 07:07 | -0.39630 | 120.04190 | 15575 ft | 448 kts | 165° |
| 2026-04-18 07:07 | -0.42670 | 120.04544 | 14821 ft | 436 kts | 187° |
| 2026-04-18 07:07 | -0.45543 | 120.03775 | 14070 ft | 425 kts | 208° |
| 2026-04-18 07:07 | -0.47829 | 120.02051 | 13326 ft | 413 kts | 230° |
| 2026-04-18 07:08 | -0.49284 | 119.99652 | 12363 ft | 402 kts | 250° |
| 2026-04-18 07:08 | -0.49923 | 119.97482 | 11550 ft | 398 kts | 257° |
| 2026-04-18 07:08 | -0.50321 | 119.95750 | 10891 ft | 398 kts | 257° |
| 2026-04-18 07:08 | -0.50935 | 119.93072 | 9884 ft | 389 kts | 257° |
| 2026-04-18 07:09 | -0.51527 | 119.90483 | 8885 ft | 376 kts | 256° |
| 2026-04-18 07:09 | -0.52302 | 119.88060 | 8290 ft | 355 kts | 249° |
| 2026-04-18 07:09 | -0.53218 | 119.85868 | 8094 ft | 328 kts | 246° |
| 2026-04-18 07:09 | -0.54149 | 119.83884 | 7995 ft | 303 kts | 245° |
| 2026-04-18 07:10 | -0.55036 | 119.82059 | 8005 ft | 283 kts | 245° |
| 2026-04-18 07:10 | -0.55858 | 119.80347 | 8004 ft | 266 kts | 245° |
| 2026-04-18 07:10 | -0.56662 | 119.78697 | 8007 ft | 264 kts | 239° |
| 2026-04-18 07:10 | -0.57949 | 119.77421 | 8006 ft | 265 kts | 209° |
| 2026-04-18 07:11 | -0.59734 | 119.76938 | 7670 ft | 274 kts | 179° |
| 2026-04-18 07:11 | -0.61562 | 119.77439 | 7064 ft | 276 kts | 156° |
| 2026-04-18 07:11 | -0.63282 | 119.78227 | 6509 ft | 275 kts | 155° |
| 2026-04-18 07:11 | -0.65022 | 119.79025 | 5946 ft | 274 kts | 155° |
| 2026-04-18 07:12 | -0.66736 | 119.79804 | 5400 ft | 273 kts | 155° |
| 2026-04-18 07:12 | -0.68466 | 119.80581 | 4857 ft | 272 kts | 156° |
| 2026-04-18 07:12 | -0.70193 | 119.81350 | 4307 ft | 271 kts | 156° |
| 2026-04-18 07:12 | -0.71911 | 119.82112 | 3773 ft | 269 kts | 156° |
| 2026-04-18 07:13 | -0.73618 | 119.82870 | 3307 ft | 264 kts | 156° |
| 2026-04-18 07:13 | -0.74731 | 119.83365 | 3175 ft | 254 kts | 156° |
| 2026-04-18 07:13 | -0.76785 | 119.84281 | 2870 ft | 235 kts | 157° |
| 2026-04-18 07:13 | -0.77775 | 119.84722 | 2723 ft | 226 kts | 157° |
| 2026-04-18 07:14 | -0.79612 | 119.85539 | 2433 ft | 211 kts | 157° |
| 2026-04-18 07:14 | -0.80495 | 119.85930 | 2322 ft | 200 kts | 157° |
| 2026-04-18 07:14 | -0.81703 | 119.86466 | 2113 ft | 185 kts | 157° |
| 2026-04-18 07:14 | -0.82822 | 119.86963 | 1925 ft | 166 kts | 157° |
| 2026-04-18 07:15 | -0.83828 | 119.87411 | 1707 ft | 153 kts | 157° |
| 2026-04-18 07:15 | -0.84782 | 119.87838 | 1511 ft | 148 kts | 156° |
| 2026-04-18 07:15 | -0.85715 | 119.88257 | 1341 ft | 146 kts | 156° |
| 2026-04-18 07:15 | -0.86642 | 119.88671 | 1116 ft | 145 kts | 155° |
| 2026-04-18 07:16 | -0.87561 | 119.89080 | 939 ft | 144 kts | 156° |
| 2026-04-18 07:16 | -0.88484 | 119.89484 | 743 ft | 145 kts | 156° |
| 2026-04-18 07:16 | -0.89412 | 119.89870 | 541 ft | 145 kts | 157° |
| 2026-04-18 07:16 | -0.90335 | 119.90276 | 334 ft | 145 kts | 154° |
| 2026-04-18 07:17 | -0.91237 | 119.90685 | 237 ft | 133 kts | 155° |
| 2026-04-18 07:17 | -0.91915 | 119.90993 | 233 ft | 68 kts | 156° |
| 2026-04-18 07:17 | -0.92094 | 119.91074 | 230 ft | 8 kts | 156° |
| 2026-04-18 07:17 | -0.92157 | 119.91085 | 232 ft | 9 kts | 136° |
| 2026-04-18 07:18 | -0.92140 | 119.91095 | 233 ft | 4 kts | 338° |
| 2026-04-18 07:18 | -0.92112 | 119.91083 | 234 ft | 5 kts | 335° |
| 2026-04-18 07:18 | -0.92074 | 119.91066 | 230 ft | 7 kts | 336° |
| 2026-04-18 07:18 | -0.92023 | 119.91042 | 231 ft | 9 kts | 334° |
| 2026-04-18 07:19 | -0.91961 | 119.91012 | 232 ft | 11 kts | 334° |
| 2026-04-18 07:19 | -0.91898 | 119.90984 | 232 ft | 9 kts | 334° |
| 2026-04-18 07:19 | -0.91875 | 119.90931 | 232 ft | 10 kts | 252° |
| 2026-04-18 07:19 | -0.91903 | 119.90867 | 230 ft | 9 kts | 245° |
| 2026-04-18 07:20 | -0.91918 | 119.90828 | 229 ft | 4 kts | 258° |
| 2026-04-18 07:20 | -0.91909 | 119.90802 | 229 ft | 5 kts | 294° |
| 2026-04-18 07:20 | -0.91913 | 119.90769 | 229 ft | 4 kts | 251° |
| 2026-04-18 07:20 | -0.91919 | 119.90755 | 229 ft | 1 kts | 248° |
| 2026-04-18 07:21 | -0.91922 | 119.90747 | 230 ft | 1 kts | 247° |